All
Flugplatz Wershofen/Eifel Airport EDRV Weather
There is no TAF data available at EDRV or any nearby airports.
There is no METAR data available at EDRV. Showing METAR data for ETSB (23 mi SE).
Recent ETSB METAR history (no data for EDRV)
| Date | Time (CEST) | Flight Rules | Wind Dir. | Speed | Type | Height AGL (ft) | Visibility | Temp (°C) | Temp (°F) | Dew Point (°C) | Dew Point (°F) | Rel. Humid. | Pressure | Density Altitude | Remarks |
|---|---|---|---|---|---|---|---|---|---|---|---|---|---|---|---|
| 02-May | 10:20PM | n/a | 210° | 6 kt | Missing | 18° | 64° | 3° | 37° | 37% | 1016 mb | 2,083 ft | |||
| 02-May | 09:20PM | n/a | 200° | 5 kt | Missing | 19° | 66° | 3° | 37° | 34% | 1016 mb | 2,203 ft | |||
| 02-May | 08:20PM | n/a | 210° | 7 kt | Missing | 20° | 68° | 4° | 39° | 35% | 1016 mb | 2,323 ft | |||
| 02-May | 07:20PM | n/a | 190° | 8 kt | Missing | 21° | 69° | 9° | 48° | 46% | 1015 mb | 2,473 ft | |||
| 02-May | 06:20PM | n/a | 200° | 10 kt | Missing | 23° | 73° | 9° | 48° | 41% | 1016 mb | 2,683 ft | |||
| 02-May | 05:20PM | n/a | 200° | 9 kt | Missing | 22° | 71° | 10° | 50° | 46% | 1017 mb | 2,534 ft | |||
| 02-May | 04:20PM | n/a | 210° | 10 kt | Missing | 23° | 73° | 10° | 50° | 44% | 1017 mb | 2,654 ft | |||
| 02-May | 03:20PM | n/a | 210° | 12 kt | Missing | 23° | 73° | 9° | 48° | 41% | 1018 mb | 2,624 ft | |||
| 02-May | 02:20PM | n/a | 170° | 11 kt | Missing | 23° | 73° | 7° | 44° | 36% | 1019 mb | 2,595 ft | |||
| 02-May | 01:20PM | n/a | 220° | 8 kt | Missing | 22° | 71° | 7° | 44° | 38% | 1019 mb | 2,475 ft | |||
| 02-May | 12:20PM | n/a | 180° | 8 kt | Missing | 22° | 71° | 8° | 46° | 41% | 1020 mb | 2,445 ft | |||
| 02-May | 11:20AM | n/a | 200° | 6 kt | Missing | 20° | 68° | 6° | 42° | 40% | 1020 mb | 2,205 ft | |||
| 02-May | 10:20AM | n/a | 200° | 7 kt | Missing | 18° | 64° | 4° | 39° | 39% | 1021 mb | 1,935 ft | |||
| 02-May | 09:20AM | n/a | 230° | 4 kt | Missing | 16° | 60° | 4° | 39° | 45% | 1021 mb | 1,695 ft | |||
| 02-May | 08:20AM | n/a | Variable | 3 kt | Missing | 15° | 59° | 3° | 37° | 44% | 1021 mb | 1,575 ft | |||
| 02-May | 07:20AM | n/a | 180° | 2 kt | Missing | 13° | 55° | 2° | 35° | 47% | 1021 mb | 1,335 ft | |||
| 02-May | 06:20AM | n/a | 120° | 3 kt | Missing | 12° | 53° | 1° | 33° | 47% | 1021 mb | 1,215 ft | |||
| 02-May | 05:20AM | n/a | 160° | 2 kt | Missing | 12° | 53° | 1° | 33° | 47% | 1021 mb | 1,215 ft | |||
| 02-May | 04:20AM | n/a | 170° | 4 kt | Missing | 13° | 55° | 1° | 33° | 44% | 1021 mb | 1,335 ft | |||
| 02-May | 03:20AM | n/a | 170° | 5 kt | Missing | 14° | 57° | 1° | 33° | 41% | 1021 mb | 1,455 ft | |||
| 02-May | 02:20AM | n/a | 150° | 5 kt | Missing | 14° | 57° | 0° | 32° | 38% | 1022 mb | 1,426 ft | |||
| 02-May | 01:20AM | n/a | 140° | 4 kt | Missing | 15° | 59° | 0° | 32° | 36% | 1023 mb | 1,516 ft | |||
| 02-May | 12:20AM | n/a | 110° | 4 kt | Missing | 15° | 59° | -1° | 30° | 33% | 1023 mb | 1,516 ft | |||
| 01-May | 11:20PM | n/a | 130° | 4 kt | Missing | 16° | 60° | -1° | 30° | 31% | 1023 mb | 1,636 ft |
Login
| Your browser is unsupported. upgrade your browser |
